sensor_id;sensor_type;location;lat;lon;timestamp;P1;durP1;ratioP1;P2;durP2;ratioP2
54823;SDS011;40724;53.196;5.980;2022-11-27T00:02:14;17.20;;;8.07;;
54823;SDS011;40724;53.196;5.980;2022-11-27T00:04:41;16.08;;;7.45;;
54823;SDS011;40724;53.196;5.980;2022-11-27T00:07:07;14.38;;;7.28;;
54823;SDS011;40724;53.196;5.980;2022-11-27T00:09:33;20.88;;;9.32;;
54823;SDS011;40724;53.196;5.980;2022-11-27T00:11:59;20.45;;;8.43;;
54823;SDS011;40724;53.196;5.980;2022-11-27T00:14:25;16.80;;;8.27;;
54823;SDS011;40724;53.196;5.980;2022-11-27T00:16:52;18.50;;;7.82;;
54823;SDS011;40724;53.196;5.980;2022-11-27T00:19:18;17.40;;;8.25;;
54823;SDS011;40724;53.196;5.980;2022-11-27T00:21:44;13.02;;;7.80;;
54823;SDS011;40724;53.196;5.980;2022-11-27T00:24:10;16.67;;;7.47;;
54823;SDS011;40724;53.196;5.980;2022-11-27T00:26:37;17.60;;;7.78;;
54823;SDS011;40724;53.196;5.980;2022-11-27T00:29:03;20.08;;;8.00;;
54823;SDS011;40724;53.196;5.980;2022-11-27T00:31:30;21.88;;;7.63;;
54823;SDS011;40724;53.196;5.980;2022-11-27T00:33:58;16.33;;;7.07;;
54823;SDS011;40724;53.196;5.980;2022-11-27T00:36:25;16.15;;;7.40;;
54823;SDS011;40724;53.196;5.980;2022-11-27T00:38:51;21.73;;;7.80;;
54823;SDS011;40724;53.196;5.980;2022-11-27T00:41:19;21.88;;;7.28;;
54823;SDS011;40724;53.196;5.980;2022-11-27T00:43:46;20.83;;;7.72;;
54823;SDS011;40724;53.196;5.980;2022-11-27T00:46:13;16.92;;;7.78;;
54823;SDS011;40724;53.196;5.980;2022-11-27T00:48:39;17.02;;;7.40;;
54823;SDS011;40724;53.196;5.980;2022-11-27T00:51:06;11.98;;;6.38;;
54823;SDS011;40724;53.196;5.980;2022-11-27T00:53:33;20.13;;;6.97;;
54823;SDS011;40724;53.196;5.980;2022-11-27T00:56:00;19.63;;;7.88;;
54823;SDS011;40724;53.196;5.980;2022-11-27T00:58:26;19.40;;;7.20;;
54823;SDS011;40724;53.196;5.980;2022-11-27T01:00:55;13.10;;;7.45;;
54823;SDS011;40724;53.196;5.980;2022-11-27T01:03:22;10.13;;;6.35;;
54823;SDS011;40724;53.196;5.980;2022-11-27T01:05:48;20.30;;;7.53;;
54823;SDS011;40724;53.196;5.980;2022-11-27T01:08:15;14.93;;;6.35;;
54823;SDS011;40724;53.196;5.980;2022-11-27T01:10:48;15.80;;;6.90;;
54823;SDS011;40724;53.196;5.980;2022-11-27T01:13:14;13.80;;;7.03;;
54823;SDS011;40724;53.196;5.980;2022-11-27T01:15:40;15.23;;;7.68;;
54823;SDS011;40724;53.196;5.980;2022-11-27T01:18:06;13.43;;;6.75;;
54823;SDS011;40724;53.196;5.980;2022-11-27T01:20:32;23.30;;;7.18;;
54823;SDS011;40724;53.196;5.980;2022-11-27T01:22:58;12.65;;;6.45;;
54823;SDS011;40724;53.196;5.980;2022-11-27T01:25:25;14.13;;;6.65;;
54823;SDS011;40724;53.196;5.980;2022-11-27T01:27:51;16.45;;;6.95;;
54823;SDS011;40724;53.196;5.980;2022-11-27T01:30:17;17.90;;;6.72;;
54823;SDS011;40724;53.196;5.980;2022-11-27T01:32:43;23.73;;;9.52;;
54823;SDS011;40724;53.196;5.980;2022-11-27T01:35:10;15.32;;;7.10;;
54823;SDS011;40724;53.196;5.980;2022-11-27T01:37:36;16.20;;;6.53;;
54823;SDS011;40724;53.196;5.980;2022-11-27T01:40:02;18.73;;;6.93;;
54823;SDS011;40724;53.196;5.980;2022-11-27T01:42:28;17.33;;;6.68;;
54823;SDS011;40724;53.196;5.980;2022-11-27T01:44:55;16.73;;;7.13;;
54823;SDS011;40724;53.196;5.980;2022-11-27T01:47:25;13.13;;;7.30;;
54823;SDS011;40724;53.196;5.980;2022-11-27T01:49:52;16.33;;;8.00;;
54823;SDS011;40724;53.196;5.980;2022-11-27T01:52:26;14.80;;;6.03;;
54823;SDS011;40724;53.196;5.980;2022-11-27T01:55:03;14.05;;;5.70;;
54823;SDS011;40724;53.196;5.980;2022-11-27T01:57:31;13.68;;;5.75;;
54823;SDS011;40724;53.196;5.980;2022-11-27T02:00:00;18.20;;;6.78;;
54823;SDS011;40724;53.196;5.980;2022-11-27T02:02:26;14.00;;;6.68;;
54823;SDS011;40724;53.196;5.980;2022-11-27T02:04:53;14.40;;;5.85;;
54823;SDS011;40724;53.196;5.980;2022-11-27T02:07:20;13.90;;;6.28;;
54823;SDS011;40724;53.196;5.980;2022-11-27T02:09:46;14.48;;;5.60;;
54823;SDS011;40724;53.196;5.980;2022-11-27T02:24:57;13.93;;;6.10;;
54823;SDS011;40724;53.196;5.980;2022-11-27T02:30:12;21.42;;;7.72;;
54823;SDS011;40724;53.196;5.980;2022-11-27T02:32:44;18.48;;;6.40;;
54823;SDS011;40724;53.196;5.980;2022-11-27T02:35:18;14.50;;;6.53;;
54823;SDS011;40724;53.196;5.980;2022-11-27T02:37:47;14.32;;;5.95;;
54823;SDS011;40724;53.196;5.980;2022-11-27T02:45:11;13.93;;;6.70;;
54823;SDS011;40724;53.196;5.980;2022-11-27T02:47:39;9.07;;;6.35;;
54823;SDS011;40724;53.196;5.980;2022-11-27T02:50:07;14.18;;;5.97;;
54823;SDS011;40724;53.196;5.980;2022-11-27T02:52:34;14.48;;;6.68;;
54823;SDS011;40724;53.196;5.980;2022-11-27T02:55:02;10.93;;;6.03;;
54823;SDS011;40724;53.196;5.980;2022-11-27T02:57:29;13.32;;;6.03;;
54823;SDS011;40724;53.196;5.980;2022-11-27T02:59:57;14.38;;;6.90;;
54823;SDS011;40724;53.196;5.980;2022-11-27T03:02:28;9.88;;;5.63;;
54823;SDS011;40724;53.196;5.980;2022-11-27T03:04:55;13.05;;;5.47;;
54823;SDS011;40724;53.196;5.980;2022-11-27T03:07:26;10.57;;;6.40;;
54823;SDS011;40724;53.196;5.980;2022-11-27T03:09:56;11.70;;;5.65;;
54823;SDS011;40724;53.196;5.980;2022-11-27T03:12:24;13.07;;;5.57;;
54823;SDS011;40724;53.196;5.980;2022-11-27T03:14:50;13.50;;;6.18;;
54823;SDS011;40724;53.196;5.980;2022-11-27T03:17:37;14.70;;;6.60;;
54823;SDS011;40724;53.196;5.980;2022-11-27T03:22:36;17.00;;;6.03;;
54823;SDS011;40724;53.196;5.980;2022-11-27T03:25:02;11.18;;;6.32;;
54823;SDS011;40724;53.196;5.980;2022-11-27T03:27:30;11.95;;;6.00;;
54823;SDS011;40724;53.196;5.980;2022-11-27T03:29:58;10.80;;;6.35;;
54823;SDS011;40724;53.196;5.980;2022-11-27T03:32:26;11.00;;;4.63;;
54823;SDS011;40724;53.196;5.980;2022-11-27T03:34:52;16.00;;;5.82;;
54823;SDS011;40724;53.196;5.980;2022-11-27T03:37:19;11.00;;;5.40;;
54823;SDS011;40724;53.196;5.980;2022-11-27T03:39:45;11.55;;;6.05;;
54823;SDS011;40724;53.196;5.980;2022-11-27T03:42:17;9.45;;;5.97;;
54823;SDS011;40724;53.196;5.980;2022-11-27T03:44:52;10.73;;;5.63;;
54823;SDS011;40724;53.196;5.980;2022-11-27T03:57:57;14.13;;;6.93;;
54823;SDS011;40724;53.196;5.980;2022-11-27T04:00:25;15.13;;;6.30;;
54823;SDS011;40724;53.196;5.980;2022-11-27T04:02:52;15.23;;;6.82;;
54823;SDS011;40724;53.196;5.980;2022-11-27T04:05:19;12.55;;;5.72;;
54823;SDS011;40724;53.196;5.980;2022-11-27T04:07:45;15.45;;;6.22;;
54823;SDS011;40724;53.196;5.980;2022-11-27T04:10:11;14.88;;;6.65;;
54823;SDS011;40724;53.196;5.980;2022-11-27T04:12:37;13.48;;;6.38;;
54823;SDS011;40724;53.196;5.980;2022-11-27T04:15:04;10.50;;;6.78;;
54823;SDS011;40724;53.196;5.980;2022-11-27T04:17:31;14.50;;;5.97;;
54823;SDS011;40724;53.196;5.980;2022-11-27T04:19:57;15.85;;;5.95;;
54823;SDS011;40724;53.196;5.980;2022-11-27T04:22:23;10.88;;;7.47;;
54823;SDS011;40724;53.196;5.980;2022-11-27T04:24:49;14.48;;;6.72;;
54823;SDS011;40724;53.196;5.980;2022-11-27T04:27:16;13.27;;;5.93;;
54823;SDS011;40724;53.196;5.980;2022-11-27T04:29:42;10.63;;;6.35;;
54823;SDS011;40724;53.196;5.980;2022-11-27T04:32:08;20.95;;;6.85;;
54823;SDS011;40724;53.196;5.980;2022-11-27T04:34:35;9.82;;;6.28;;
54823;SDS011;40724;53.196;5.980;2022-11-27T04:37:01;12.95;;;7.30;;
54823;SDS011;40724;53.196;5.980;2022-11-27T04:39:27;9.93;;;6.60;;
54823;SDS011;40724;53.196;5.980;2022-11-27T04:41:53;14.68;;;7.22;;
54823;SDS011;40724;53.196;5.980;2022-11-27T04:44:19;13.55;;;6.53;;
54823;SDS011;40724;53.196;5.980;2022-11-27T04:46:47;10.48;;;6.82;;
54823;SDS011;40724;53.196;5.980;2022-11-27T04:49:13;13.57;;;7.22;;
54823;SDS011;40724;53.196;5.980;2022-11-27T04:51:40;16.35;;;6.72;;
54823;SDS011;40724;53.196;5.980;2022-11-27T04:54:06;11.02;;;6.00;;
54823;SDS011;40724;53.196;5.980;2022-11-27T04:56:32;13.88;;;6.00;;
54823;SDS011;40724;53.196;5.980;2022-11-27T04:58:58;12.85;;;6.32;;
54823;SDS011;40724;53.196;5.980;2022-11-27T05:01:24;12.02;;;6.22;;
54823;SDS011;40724;53.196;5.980;2022-11-27T05:03:51;14.05;;;6.22;;
54823;SDS011;40724;53.196;5.980;2022-11-27T05:06:17;12.73;;;5.65;;
54823;SDS011;40724;53.196;5.980;2022-11-27T05:08:43;12.13;;;6.57;;
54823;SDS011;40724;53.196;5.980;2022-11-27T05:11:10;15.93;;;5.50;;
54823;SDS011;40724;53.196;5.980;2022-11-27T05:13:37;12.10;;;6.20;;
54823;SDS011;40724;53.196;5.980;2022-11-27T05:16:04;10.15;;;6.05;;
54823;SDS011;40724;53.196;5.980;2022-11-27T05:18:30;11.18;;;6.32;;
54823;SDS011;40724;53.196;5.980;2022-11-27T05:21:01;10.52;;;5.68;;
54823;SDS011;40724;53.196;5.980;2022-11-27T05:23:27;9.25;;;5.07;;
54823;SDS011;40724;53.196;5.980;2022-11-27T05:25:53;14.45;;;6.40;;
54823;SDS011;40724;53.196;5.980;2022-11-27T05:28:20;13.13;;;6.82;;
54823;SDS011;40724;53.196;5.980;2022-11-27T05:30:47;9.15;;;5.43;;
54823;SDS011;40724;53.196;5.980;2022-11-27T05:33:13;14.80;;;5.95;;
54823;SDS011;40724;53.196;5.980;2022-11-27T05:35:40;8.07;;;4.72;;
54823;SDS011;40724;53.196;5.980;2022-11-27T05:38:07;16.92;;;5.88;;
54823;SDS011;40724;53.196;5.980;2022-11-27T05:40:33;11.57;;;5.57;;
54823;SDS011;40724;53.196;5.980;2022-11-27T05:42:59;10.90;;;5.13;;
54823;SDS011;40724;53.196;5.980;2022-11-27T05:45:26;9.38;;;5.43;;
54823;SDS011;40724;53.196;5.980;2022-11-27T05:47:52;8.52;;;4.93;;
54823;SDS011;40724;53.196;5.980;2022-11-27T05:50:18;13.30;;;6.28;;
54823;SDS011;40724;53.196;5.980;2022-11-27T05:52:44;14.50;;;5.70;;
54823;SDS011;40724;53.196;5.980;2022-11-27T05:55:10;10.18;;;5.50;;
54823;SDS011;40724;53.196;5.980;2022-11-27T05:57:37;12.00;;;5.63;;
54823;SDS011;40724;53.196;5.980;2022-11-27T06:00:03;11.38;;;5.88;;
54823;SDS011;40724;53.196;5.980;2022-11-27T06:02:30;12.70;;;5.38;;
54823;SDS011;40724;53.196;5.980;2022-11-27T06:04:56;10.55;;;4.97;;
54823;SDS011;40724;53.196;5.980;2022-11-27T06:07:22;12.07;;;5.00;;
54823;SDS011;40724;53.196;5.980;2022-11-27T06:09:49;8.55;;;4.55;;
54823;SDS011;40724;53.196;5.980;2022-11-27T06:12:15;8.60;;;4.72;;
54823;SDS011;40724;53.196;5.980;2022-11-27T06:14:41;13.82;;;4.95;;
54823;SDS011;40724;53.196;5.980;2022-11-27T06:17:07;9.43;;;4.40;;
54823;SDS011;40724;53.196;5.980;2022-11-27T06:19:33;8.38;;;4.75;;
54823;SDS011;40724;53.196;5.980;2022-11-27T06:22:00;13.52;;;5.03;;
54823;SDS011;40724;53.196;5.980;2022-11-27T06:24:26;14.35;;;4.63;;
54823;SDS011;40724;53.196;5.980;2022-11-27T06:26:52;10.18;;;4.47;;
54823;SDS011;40724;53.196;5.980;2022-11-27T06:29:18;9.30;;;4.65;;
54823;SDS011;40724;53.196;5.980;2022-11-27T06:31:44;9.40;;;4.80;;
54823;SDS011;40724;53.196;5.980;2022-11-27T06:34:10;7.25;;;4.57;;
54823;SDS011;40724;53.196;5.980;2022-11-27T06:36:37;10.88;;;4.55;;
54823;SDS011;40724;53.196;5.980;2022-11-27T06:39:07;16.02;;;4.97;;
54823;SDS011;40724;53.196;5.980;2022-11-27T06:41:34;10.35;;;3.88;;
54823;SDS011;40724;53.196;5.980;2022-11-27T06:44:01;9.55;;;4.40;;
54823;SDS011;40724;53.196;5.980;2022-11-27T06:46:27;8.20;;;4.75;;
54823;SDS011;40724;53.196;5.980;2022-11-27T06:48:54;10.25;;;3.90;;
54823;SDS011;40724;53.196;5.980;2022-11-27T06:51:21;8.60;;;4.82;;
54823;SDS011;40724;53.196;5.980;2022-11-27T06:53:48;11.20;;;4.90;;
54823;SDS011;40724;53.196;5.980;2022-11-27T06:56:15;8.80;;;3.85;;
54823;SDS011;40724;53.196;5.980;2022-11-27T06:58:42;11.75;;;4.15;;
54823;SDS011;40724;53.196;5.980;2022-11-27T07:01:09;8.23;;;4.75;;
54823;SDS011;40724;53.196;5.980;2022-11-27T07:03:36;10.82;;;5.18;;
54823;SDS011;40724;53.196;5.980;2022-11-27T07:06:04;9.52;;;4.13;;
54823;SDS011;40724;53.196;5.980;2022-11-27T07:08:30;10.23;;;3.55;;
54823;SDS011;40724;53.196;5.980;2022-11-27T07:11:07;7.85;;;4.35;;
54823;SDS011;40724;53.196;5.980;2022-11-27T07:13:34;8.90;;;4.55;;
54823;SDS011;40724;53.196;5.980;2022-11-27T07:16:00;8.25;;;4.80;;
54823;SDS011;40724;53.196;5.980;2022-11-27T07:18:28;9.52;;;5.78;;
54823;SDS011;40724;53.196;5.980;2022-11-27T07:20:56;9.70;;;4.10;;
54823;SDS011;40724;53.196;5.980;2022-11-27T07:23:22;7.22;;;3.63;;
54823;SDS011;40724;53.196;5.980;2022-11-27T07:25:48;8.27;;;3.42;;
54823;SDS011;40724;53.196;5.980;2022-11-27T07:28:15;9.57;;;4.05;;
54823;SDS011;40724;53.196;5.980;2022-11-27T07:30:41;7.80;;;3.78;;
54823;SDS011;40724;53.196;5.980;2022-11-27T07:33:07;8.45;;;3.58;;
54823;SDS011;40724;53.196;5.980;2022-11-27T07:35:34;8.38;;;3.67;;
54823;SDS011;40724;53.196;5.980;2022-11-27T07:38:00;12.15;;;4.10;;
54823;SDS011;40724;53.196;5.980;2022-11-27T07:40:26;10.98;;;4.00;;
54823;SDS011;40724;53.196;5.980;2022-11-27T07:42:52;11.23;;;4.45;;
54823;SDS011;40724;53.196;5.980;2022-11-27T07:45:18;8.52;;;3.80;;
54823;SDS011;40724;53.196;5.980;2022-11-27T07:47:45;14.07;;;3.97;;
54823;SDS011;40724;53.196;5.980;2022-11-27T07:50:11;11.43;;;3.70;;
54823;SDS011;40724;53.196;5.980;2022-11-27T07:52:38;6.70;;;4.25;;
54823;SDS011;40724;53.196;5.980;2022-11-27T07:55:04;8.38;;;3.83;;
54823;SDS011;40724;53.196;5.980;2022-11-27T07:57:30;7.65;;;3.60;;
54823;SDS011;40724;53.196;5.980;2022-11-27T07:59:56;8.15;;;3.47;;
54823;SDS011;40724;53.196;5.980;2022-11-27T08:02:23;7.68;;;3.35;;
54823;SDS011;40724;53.196;5.980;2022-11-27T08:04:49;5.85;;;3.45;;
54823;SDS011;40724;53.196;5.980;2022-11-27T08:07:15;6.95;;;3.42;;
54823;SDS011;40724;53.196;5.980;2022-11-27T08:09:42;6.93;;;3.95;;
54823;SDS011;40724;53.196;5.980;2022-11-27T08:12:08;7.85;;;3.47;;
54823;SDS011;40724;53.196;5.980;2022-11-27T08:14:34;7.07;;;3.58;;
54823;SDS011;40724;53.196;5.980;2022-11-27T08:17:01;6.57;;;3.97;;
54823;SDS011;40724;53.196;5.980;2022-11-27T08:19:27;8.15;;;4.35;;
54823;SDS011;40724;53.196;5.980;2022-11-27T08:21:54;8.23;;;4.70;;
54823;SDS011;40724;53.196;5.980;2022-11-27T08:24:21;11.30;;;4.05;;
54823;SDS011;40724;53.196;5.980;2022-11-27T08:26:47;13.32;;;4.78;;
54823;SDS011;40724;53.196;5.980;2022-11-27T08:29:14;8.27;;;4.00;;
54823;SDS011;40724;53.196;5.980;2022-11-27T08:31:40;8.05;;;4.65;;
54823;SDS011;40724;53.196;5.980;2022-11-27T08:34:06;9.52;;;4.55;;
54823;SDS011;40724;53.196;5.980;2022-11-27T08:36:32;7.22;;;3.95;;
54823;SDS011;40724;53.196;5.980;2022-11-27T08:38:59;8.57;;;4.45;;
54823;SDS011;40724;53.196;5.980;2022-11-27T08:41:25;10.80;;;5.32;;
54823;SDS011;40724;53.196;5.980;2022-11-27T08:43:51;11.68;;;4.80;;
54823;SDS011;40724;53.196;5.980;2022-11-27T08:46:17;7.18;;;3.75;;
54823;SDS011;40724;53.196;5.980;2022-11-27T08:48:43;6.18;;;3.88;;
54823;SDS011;40724;53.196;5.980;2022-11-27T08:51:11;7.75;;;3.58;;
54823;SDS011;40724;53.196;5.980;2022-11-27T08:53:38;9.35;;;3.85;;
54823;SDS011;40724;53.196;5.980;2022-11-27T08:56:10;8.30;;;4.30;;
54823;SDS011;40724;53.196;5.980;2022-11-27T08:58:37;8.70;;;4.53;;
54823;SDS011;40724;53.196;5.980;2022-11-27T09:01:24;8.30;;;4.22;;
54823;SDS011;40724;53.196;5.980;2022-11-27T09:03:51;11.05;;;4.82;;
54823;SDS011;40724;53.196;5.980;2022-11-27T09:06:19;11.07;;;5.15;;
54823;SDS011;40724;53.196;5.980;2022-11-27T09:08:46;12.35;;;4.97;;
54823;SDS011;40724;53.196;5.980;2022-11-27T09:11:13;6.32;;;4.03;;
54823;SDS011;40724;53.196;5.980;2022-11-27T09:13:39;9.30;;;4.40;;
54823;SDS011;40724;53.196;5.980;2022-11-27T09:16:07;7.53;;;4.32;;
54823;SDS011;40724;53.196;5.980;2022-11-27T09:18:34;9.90;;;4.28;;
54823;SDS011;40724;53.196;5.980;2022-11-27T09:21:05;14.70;;;5.68;;
54823;SDS011;40724;53.196;5.980;2022-11-27T09:23:31;8.68;;;4.00;;
54823;SDS011;40724;53.196;5.980;2022-11-27T09:26:01;9.98;;;4.55;;
54823;SDS011;40724;53.196;5.980;2022-11-27T09:28:28;11.23;;;5.38;;
54823;SDS011;40724;53.196;5.980;2022-11-27T09:30:55;8.07;;;4.55;;
54823;SDS011;40724;53.196;5.980;2022-11-27T09:33:22;11.73;;;5.22;;
54823;SDS011;40724;53.196;5.980;2022-11-27T09:35:49;10.65;;;4.88;;
54823;SDS011;40724;53.196;5.980;2022-11-27T09:38:15;20.25;;;6.07;;
54823;SDS011;40724;53.196;5.980;2022-11-27T09:40:51;8.98;;;4.78;;
54823;SDS011;40724;53.196;5.980;2022-11-27T09:43:20;9.65;;;5.28;;
54823;SDS011;40724;53.196;5.980;2022-11-27T09:45:48;12.43;;;5.40;;
54823;SDS011;40724;53.196;5.980;2022-11-27T09:51:24;7.47;;;4.55;;
54823;SDS011;40724;53.196;5.980;2022-11-27T09:53:58;8.77;;;4.78;;
54823;SDS011;40724;53.196;5.980;2022-11-27T09:56:25;10.98;;;5.65;;
54823;SDS011;40724;53.196;5.980;2022-11-27T09:58:58;11.05;;;5.55;;
54823;SDS011;40724;53.196;5.980;2022-11-27T10:03:51;11.40;;;5.30;;
54823;SDS011;40724;53.196;5.980;2022-11-27T10:08:51;15.20;;;5.32;;
54823;SDS011;40724;53.196;5.980;2022-11-27T10:11:27;10.90;;;5.55;;
54823;SDS011;40724;53.196;5.980;2022-11-27T10:24:26;8.13;;;5.03;;
54823;SDS011;40724;53.196;5.980;2022-11-27T10:27:00;10.38;;;5.22;;
54823;SDS011;40724;53.196;5.980;2022-11-27T10:29:46;9.40;;;5.30;;
54823;SDS011;40724;53.196;5.980;2022-11-27T10:32:14;12.48;;;5.55;;
54823;SDS011;40724;53.196;5.980;2022-11-27T10:34:43;8.38;;;6.45;;
54823;SDS011;40724;53.196;5.980;2022-11-27T10:37:15;9.80;;;5.13;;
54823;SDS011;40724;53.196;5.980;2022-11-27T10:45:24;14.20;;;5.65;;
54823;SDS011;40724;53.196;5.980;2022-11-27T10:47:53;18.45;;;6.45;;
54823;SDS011;40724;53.196;5.980;2022-11-27T10:50:19;10.98;;;5.63;;
54823;SDS011;40724;53.196;5.980;2022-11-27T10:52:54;13.10;;;4.95;;
54823;SDS011;40724;53.196;5.980;2022-11-27T10:55:56;11.73;;;6.15;;
54823;SDS011;40724;53.196;5.980;2022-11-27T11:00:45;9.48;;;5.05;;
54823;SDS011;40724;53.196;5.980;2022-11-27T11:03:16;8.65;;;5.75;;
54823;SDS011;40724;53.196;5.980;2022-11-27T11:05:53;11.38;;;5.57;;
54823;SDS011;40724;53.196;5.980;2022-11-27T11:08:20;8.07;;;4.57;;
54823;SDS011;40724;53.196;5.980;2022-11-27T11:10:50;11.07;;;4.53;;
54823;SDS011;40724;53.196;5.980;2022-11-27T11:13:18;7.88;;;5.30;;
54823;SDS011;40724;53.196;5.980;2022-11-27T11:15:47;8.07;;;6.25;;
54823;SDS011;40724;53.196;5.980;2022-11-27T11:18:18;13.48;;;5.85;;
54823;SDS011;40724;53.196;5.980;2022-11-27T11:20:48;9.50;;;5.68;;
54823;SDS011;40724;53.196;5.980;2022-11-27T11:23:20;11.20;;;6.05;;
54823;SDS011;40724;53.196;5.980;2022-11-27T11:25:47;10.55;;;5.60;;
54823;SDS011;40724;53.196;5.980;2022-11-27T11:28:15;12.27;;;6.20;;
54823;SDS011;40724;53.196;5.980;2022-11-27T11:30:50;11.82;;;6.32;;
54823;SDS011;40724;53.196;5.980;2022-11-27T11:33:17;12.32;;;6.20;;
54823;SDS011;40724;53.196;5.980;2022-11-27T11:35:49;11.00;;;5.85;;
54823;SDS011;40724;53.196;5.980;2022-11-27T11:38:16;11.52;;;6.15;;
54823;SDS011;40724;53.196;5.980;2022-11-27T11:40:44;13.23;;;6.47;;
54823;SDS011;40724;53.196;5.980;2022-11-27T11:43:23;15.00;;;6.28;;
54823;SDS011;40724;53.196;5.980;2022-11-27T11:45:51;12.38;;;6.97;;
54823;SDS011;40724;53.196;5.980;2022-11-27T11:48:24;14.73;;;6.90;;
54823;SDS011;40724;53.196;5.980;2022-11-27T11:50:59;10.30;;;6.28;;
54823;SDS011;40724;53.196;5.980;2022-11-27T11:53:31;14.07;;;6.13;;
54823;SDS011;40724;53.196;5.980;2022-11-27T11:58:31;11.82;;;6.43;;
54823;SDS011;40724;53.196;5.980;2022-11-27T12:01:22;14.05;;;7.28;;
54823;SDS011;40724;53.196;5.980;2022-11-27T12:04:01;11.52;;;6.13;;
54823;SDS011;40724;53.196;5.980;2022-11-27T12:06:36;12.80;;;8.18;;
54823;SDS011;40724;53.196;5.980;2022-11-27T12:09:26;15.07;;;7.15;;
54823;SDS011;40724;53.196;5.980;2022-11-27T12:17:04;10.73;;;6.65;;
54823;SDS011;40724;53.196;5.980;2022-11-27T12:22:29;11.52;;;7.25;;
54823;SDS011;40724;53.196;5.980;2022-11-27T12:25:25;13.93;;;8.15;;
54823;SDS011;40724;53.196;5.980;2022-11-27T12:36:10;13.75;;;6.97;;
54823;SDS011;40724;53.196;5.980;2022-11-27T12:41:29;14.27;;;7.65;;
54823;SDS011;40724;53.196;5.980;2022-11-27T12:43:59;19.20;;;7.97;;
54823;SDS011;40724;53.196;5.980;2022-11-27T12:49:03;11.75;;;5.70;;
54823;SDS011;40724;53.196;5.980;2022-11-27T12:51:32;14.18;;;6.55;;
54823;SDS011;40724;53.196;5.980;2022-11-27T12:54:09;13.98;;;7.07;;
54823;SDS011;40724;53.196;5.980;2022-11-27T12:59:10;15.90;;;7.00;;
54823;SDS011;40724;53.196;5.980;2022-11-27T13:06:53;12.20;;;5.80;;
54823;SDS011;40724;53.196;5.980;2022-11-27T13:10:04;10.40;;;5.95;;
54823;SDS011;40724;53.196;5.980;2022-11-27T13:12:12;18.05;;;7.05;;
54823;SDS011;40724;53.196;5.980;2022-11-27T13:14:42;10.40;;;8.10;;
54823;SDS011;40724;53.196;5.980;2022-11-27T13:17:12;10.63;;;5.50;;
54823;SDS011;40724;53.196;5.980;2022-11-27T13:19:48;11.65;;;6.57;;
54823;SDS011;40724;53.196;5.980;2022-11-27T13:22:22;13.25;;;7.07;;
54823;SDS011;40724;53.196;5.980;2022-11-27T13:24:52;13.82;;;7.38;;
54823;SDS011;40724;53.196;5.980;2022-11-27T13:27:20;14.77;;;7.88;;
54823;SDS011;40724;53.196;5.980;2022-11-27T13:29:56;11.68;;;6.35;;
54823;SDS011;40724;53.196;5.980;2022-11-27T13:32:25;11.50;;;6.65;;
54823;SDS011;40724;53.196;5.980;2022-11-27T13:34:54;13.63;;;6.90;;
54823;SDS011;40724;53.196;5.980;2022-11-27T13:37:34;12.00;;;6.72;;
54823;SDS011;40724;53.196;5.980;2022-11-27T13:40:05;10.02;;;7.43;;
54823;SDS011;40724;53.196;5.980;2022-11-27T13:42:33;13.38;;;7.20;;
54823;SDS011;40724;53.196;5.980;2022-11-27T13:45:02;13.75;;;6.57;;
54823;SDS011;40724;53.196;5.980;2022-11-27T13:47:34;10.38;;;6.40;;
54823;SDS011;40724;53.196;5.980;2022-11-27T13:50:03;11.07;;;5.97;;
54823;SDS011;40724;53.196;5.980;2022-11-27T13:52:29;10.27;;;6.57;;
54823;SDS011;40724;53.196;5.980;2022-11-27T13:54:59;10.77;;;6.90;;
54823;SDS011;40724;53.196;5.980;2022-11-27T13:57:27;9.27;;;6.10;;
54823;SDS011;40724;53.196;5.980;2022-11-27T14:00:07;14.38;;;6.50;;
54823;SDS011;40724;53.196;5.980;2022-11-27T14:02:47;13.63;;;7.88;;
54823;SDS011;40724;53.196;5.980;2022-11-27T14:05:15;10.02;;;7.13;;
54823;SDS011;40724;53.196;5.980;2022-11-27T14:07:43;10.13;;;6.57;;
54823;SDS011;40724;53.196;5.980;2022-11-27T14:10:20;17.40;;;8.15;;
54823;SDS011;40724;53.196;5.980;2022-11-27T14:13:03;14.98;;;8.23;;
54823;SDS011;40724;53.196;5.980;2022-11-27T14:15:37;12.77;;;7.60;;
54823;SDS011;40724;53.196;5.980;2022-11-27T14:18:17;10.07;;;6.97;;
54823;SDS011;40724;53.196;5.980;2022-11-27T14:20:51;14.52;;;7.15;;
54823;SDS011;40724;53.196;5.980;2022-11-27T14:23:29;10.55;;;7.00;;
54823;SDS011;40724;53.196;5.980;2022-11-27T14:28:28;10.52;;;6.30;;
54823;SDS011;40724;53.196;5.980;2022-11-27T14:30:56;10.82;;;7.68;;
54823;SDS011;40724;53.196;5.980;2022-11-27T14:33:24;10.73;;;6.90;;
54823;SDS011;40724;53.196;5.980;2022-11-27T14:36:00;10.38;;;6.95;;
54823;SDS011;40724;53.196;5.980;2022-11-27T14:38:27;11.20;;;7.47;;
54823;SDS011;40724;53.196;5.980;2022-11-27T14:40:54;11.05;;;7.22;;
54823;SDS011;40724;53.196;5.980;2022-11-27T14:43:32;15.02;;;7.40;;
54823;SDS011;40724;53.196;5.980;2022-11-27T14:45:59;13.45;;;7.07;;
54823;SDS011;40724;53.196;5.980;2022-11-27T14:48:27;19.33;;;7.65;;
54823;SDS011;40724;53.196;5.980;2022-11-27T14:50:54;12.82;;;8.77;;
54823;SDS011;40724;53.196;5.980;2022-11-27T14:53:21;13.80;;;7.22;;
54823;SDS011;40724;53.196;5.980;2022-11-27T14:55:49;16.55;;;10.25;;
54823;SDS011;40724;53.196;5.980;2022-11-27T14:58:19;13.75;;;7.43;;
54823;SDS011;40724;53.196;5.980;2022-11-27T15:00:51;11.32;;;6.72;;
54823;SDS011;40724;53.196;5.980;2022-11-27T15:03:17;12.88;;;7.97;;
54823;SDS011;40724;53.196;5.980;2022-11-27T15:06:05;11.20;;;7.75;;
54823;SDS011;40724;53.196;5.980;2022-11-27T15:08:32;11.40;;;6.78;;
54823;SDS011;40724;53.196;5.980;2022-11-27T15:10:59;12.63;;;7.22;;
54823;SDS011;40724;53.196;5.980;2022-11-27T15:13:28;12.07;;;6.90;;
54823;SDS011;40724;53.196;5.980;2022-11-27T15:15:56;12.88;;;7.60;;
54823;SDS011;40724;53.196;5.980;2022-11-27T15:18:23;11.90;;;7.35;;
54823;SDS011;40724;53.196;5.980;2022-11-27T15:20:50;12.50;;;7.25;;
54823;SDS011;40724;53.196;5.980;2022-11-27T15:23:21;11.00;;;7.03;;
54823;SDS011;40724;53.196;5.980;2022-11-27T15:30:53;11.98;;;6.88;;
54823;SDS011;40724;53.196;5.980;2022-11-27T15:33:26;12.88;;;6.55;;
54823;SDS011;40724;53.196;5.980;2022-11-27T15:38:19;10.90;;;6.78;;
54823;SDS011;40724;53.196;5.980;2022-11-27T15:40:55;13.93;;;6.88;;
54823;SDS011;40724;53.196;5.980;2022-11-27T15:43:22;10.25;;;8.00;;
54823;SDS011;40724;53.196;5.980;2022-11-27T15:45:48;13.93;;;8.35;;
54823;SDS011;40724;53.196;5.980;2022-11-27T15:48:16;14.98;;;8.48;;
54823;SDS011;40724;53.196;5.980;2022-11-27T15:50:42;10.45;;;7.50;;
54823;SDS011;40724;53.196;5.980;2022-11-27T15:53:09;9.13;;;6.28;;
54823;SDS011;40724;53.196;5.980;2022-11-27T15:55:35;22.10;;;8.98;;
54823;SDS011;40724;53.196;5.980;2022-11-27T15:58:02;12.65;;;8.57;;
54823;SDS011;40724;53.196;5.980;2022-11-27T16:00:28;13.52;;;8.52;;
54823;SDS011;40724;53.196;5.980;2022-11-27T16:02:54;13.18;;;8.40;;
54823;SDS011;40724;53.196;5.980;2022-11-27T16:05:20;11.50;;;7.63;;
54823;SDS011;40724;53.196;5.980;2022-11-27T16:07:46;11.52;;;7.05;;
54823;SDS011;40724;53.196;5.980;2022-11-27T16:10:12;13.23;;;8.13;;
54823;SDS011;40724;53.196;5.980;2022-11-27T16:12:39;13.60;;;7.75;;
54823;SDS011;40724;53.196;5.980;2022-11-27T16:15:05;17.30;;;8.52;;
54823;SDS011;40724;53.196;5.980;2022-11-27T16:17:32;12.65;;;6.93;;
54823;SDS011;40724;53.196;5.980;2022-11-27T16:19:58;11.23;;;7.20;;
54823;SDS011;40724;53.196;5.980;2022-11-27T16:22:24;16.05;;;8.02;;
54823;SDS011;40724;53.196;5.980;2022-11-27T16:24:51;15.50;;;7.90;;
54823;SDS011;40724;53.196;5.980;2022-11-27T16:27:17;9.90;;;6.97;;
54823;SDS011;40724;53.196;5.980;2022-11-27T16:29:43;10.50;;;6.80;;